Time;durP1;ratioP1;P1;durP2;ratioP2;P2;SDS_P1;SDS_P2;PMS_P1;PMS_P2;Temp;Humidity;BMP_temperature;BMP_pressure;BME280_temperature;BME280_humidity;BME280_pressure;Samples;Min_cycle;Max_cycle;Signal;HPM_P1;HPM_P2
2022/01/24 00:01:11;;;;;;;2.78;0.93;;;;;;;;;;4972771;28;20031;-62
2022/01/24 00:03:37;;;;;;;0.80;0.80;;;;;;;;;;4972071;28;20031;-62
2022/01/24 00:06:04;;;;;;;4.32;0.85;;;;;;;;;;4972685;28;20051;-63
2022/01/24 00:08:31;;;;;;;1.77;0.90;;;;;;;;;;4973973;28;20034;-64
2022/01/24 00:11:04;;;;;;;2.65;0.80;;;;;;;;;;4976312;28;20019;-62
2022/01/24 00:26:53;;;;;;;1.33;0.93;;;;;;;;;;4957119;29;20051;-61
2022/01/24 00:29:20;;;;;;;1.85;0.70;;;;;;;;;;4956852;28;20063;-62
2022/01/24 00:31:47;;;;;;;1.55;0.80;;;;;;;;;;4956883;29;20042;-62
2022/01/24 00:34:14;;;;;;;1.85;0.70;;;;;;;;;;4956837;28;20119;-62
2022/01/24 00:36:40;;;;;;;0.70;0.65;;;;;;;;;;4958550;28;20034;-63
2022/01/24 00:39:07;;;;;;;6.55;0.85;;;;;;;;;;4976186;28;20027;-61
2022/01/24 00:41:42;;;;;;;4.65;0.70;;;;;;;;;;4976155;28;20031;-62
2022/01/24 00:46:52;;;;;;;1.00;0.70;;;;;;;;;;4976193;28;20370;-63
2022/01/24 00:54:43;;;;;;;2.10;0.70;;;;;;;;;;4974756;28;20128;-63
2022/01/24 00:57:10;;;;;;;2.97;0.60;;;;;;;;;;4975816;28;20136;-63
2022/01/24 00:59:36;;;;;;;0.95;0.60;;;;;;;;;;4976030;28;20050;-63
2022/01/24 01:02:03;;;;;;;7.50;0.80;;;;;;;;;;4975443;28;20474;-62
2022/01/24 01:04:42;;;;;;;5.60;0.80;;;;;;;;;;4975500;28;20066;-62
2022/01/24 01:07:08;;;;;;;5.22;0.75;;;;;;;;;;4975570;28;20542;-61
2022/01/24 01:18:09;;;;;;;2.58;0.70;;;;;;;;;;4975610;28;20050;-61
2022/01/24 01:21:21;;;;;;;2.40;0.90;;;;;;;;;;4974412;28;20514;-64
2022/01/24 01:23:22;;;;;;;2.10;0.70;;;;;;;;;;4971036;28;20202;-66
2022/01/24 01:25:49;;;;;;;6.97;0.90;;;;;;;;;;4954897;28;20603;-61
2022/01/24 01:28:16;;;;;;;2.75;0.60;;;;;;;;;;4973902;28;20023;-64
2022/01/24 01:30:46;;;;;;;1.45;0.70;;;;;;;;;;4974902;28;20031;-62
2022/01/24 01:55:43;;;;;;;2.45;0.65;;;;;;;;;;4975112;28;20023;-61
2022/01/24 01:58:03;;;;;;;3.85;0.60;;;;;;;;;;4971531;28;20037;-61
2022/01/24 02:00:29;;;;;;;3.58;0.63;;;;;;;;;;4974360;28;20039;-63
2022/01/24 02:02:55;;;;;;;1.45;0.65;;;;;;;;;;4974547;28;20034;-62
2022/01/24 02:05:22;;;;;;;2.50;0.68;;;;;;;;;;4974752;28;20077;-62
2022/01/24 02:07:49;;;;;;;4.70;0.70;;;;;;;;;;4974797;28;20085;-62
2022/01/24 02:10:16;;;;;;;8.32;0.70;;;;;;;;;;4974299;28;20027;-62
2022/01/24 02:12:42;;;;;;;9.10;0.70;;;;;;;;;;4973550;28;20031;-65
2022/01/24 02:15:09;;;;;;;6.25;0.77;;;;;;;;;;4972895;28;20027;-61
2022/01/24 02:17:58;;;;;;;4.65;0.70;;;;;;;;;;4974209;28;20047;-61
2022/01/24 02:23:02;;;;;;;1.13;0.55;;;;;;;;;;4974455;28;20042;-61
2022/01/24 02:25:30;;;;;;;3.33;0.65;;;;;;;;;;4974085;28;20042;-62
2022/01/24 02:28:00;;;;;;;5.10;0.70;;;;;;;;;;4974045;28;20470;-64
2022/01/24 02:32:55;;;;;;;4.63;0.65;;;;;;;;;;4972243;28;20073;-62
2022/01/24 02:35:21;;;;;;;3.05;0.70;;;;;;;;;;4973984;28;20031;-61
2022/01/24 02:37:47;;;;;;;2.10;0.70;;;;;;;;;;4972886;28;20077;-63
2022/01/24 02:40:17;;;;;;;2.95;0.60;;;;;;;;;;4973862;28;20050;-62
2022/01/24 02:48:24;;;;;;;0.95;0.60;;;;;;;;;;4972667;28;20506;-63
2022/01/24 02:51:13;;;;;;;0.50;0.50;;;;;;;;;;4973474;28;20057;-62
2022/01/24 02:53:39;;;;;;;3.63;0.63;;;;;;;;;;4973344;28;20117;-62
2022/01/24 02:56:06;;;;;;;0.65;0.60;;;;;;;;;;4972811;28;20359;-62
2022/01/24 02:58:32;;;;;;;0.60;0.40;;;;;;;;;;4973664;28;20047;-61
2022/01/24 03:00:59;;;;;;;1.85;0.70;;;;;;;;;;4973333;28;20029;-61
2022/01/24 03:03:25;;;;;;;2.95;0.50;;;;;;;;;;4972547;28;20106;-62
2022/01/24 03:05:51;;;;;;;3.38;0.55;;;;;;;;;;4973543;28;20113;-64
2022/01/24 03:08:20;;;;;;;1.40;0.60;;;;;;;;;;4972691;28;20054;-61
2022/01/24 03:10:47;;;;;;;0.80;0.55;;;;;;;;;;4956087;28;20027;-62
2022/01/24 03:15:41;;;;;;;3.58;0.70;;;;;;;;;;4973393;28;20530;-62
2022/01/24 03:18:07;;;;;;;1.02;0.60;;;;;;;;;;4969123;28;20101;-63
2022/01/24 03:20:33;;;;;;;1.10;0.50;;;;;;;;;;4973455;28;20531;-62
2022/01/24 03:22:59;;;;;;;9.23;0.60;;;;;;;;;;4972153;28;20386;-62
2022/01/24 03:25:25;;;;;;;2.58;0.70;;;;;;;;;;4973345;28;20097;-62
2022/01/24 03:27:51;;;;;;;1.85;0.70;;;;;;;;;;4972574;28;20403;-62
2022/01/24 03:30:17;;;;;;;2.40;0.60;;;;;;;;;;4973203;28;20034;-62
2022/01/24 03:32:43;;;;;;;2.17;0.73;;;;;;;;;;4972130;28;20490;-62
2022/01/24 03:35:09;;;;;;;2.33;0.70;;;;;;;;;;4973066;28;20150;-63
2022/01/24 03:37:35;;;;;;;4.20;0.63;;;;;;;;;;4972079;28;20122;-62
2022/01/24 03:40:02;;;;;;;7.75;0.80;;;;;;;;;;4973108;28;20101;-62
2022/01/24 03:42:28;;;;;;;6.68;0.73;;;;;;;;;;4971807;28;20090;-64
2022/01/24 03:44:58;;;;;;;4.53;0.77;;;;;;;;;;4976707;28;20027;-62
2022/01/24 03:49:56;;;;;;;4.20;0.68;;;;;;;;;;4976886;28;20034;-64
2022/01/24 03:52:23;;;;;;;4.40;0.75;;;;;;;;;;4976010;28;20049;-63
2022/01/24 03:54:49;;;;;;;2.08;0.70;;;;;;;;;;4963860;28;20081;-63
2022/01/24 03:57:16;;;;;;;3.75;0.80;;;;;;;;;;4965980;28;20118;-63
2022/01/24 03:59:43;;;;;;;4.50;0.52;;;;;;;;;;4977016;28;20049;-62
2022/01/24 04:02:09;;;;;;;1.10;0.80;;;;;;;;;;4976149;28;20138;-62
2022/01/24 04:04:35;;;;;;;4.60;0.68;;;;;;;;;;4976543;28;20414;-66
2022/01/24 04:07:01;;;;;;;2.55;0.80;;;;;;;;;;4975733;28;20034;-65
2022/01/24 04:09:27;;;;;;;5.78;0.60;;;;;;;;;;4959218;28;20031;-63
2022/01/24 04:11:56;;;;;;;1.67;0.70;;;;;;;;;;4986834;28;20110;-61
2022/01/24 04:17:20;;;;;;;1.45;0.60;;;;;;;;;;4972271;28;20051;-62
2022/01/24 04:22:22;;;;;;;1.88;0.82;;;;;;;;;;4975326;28;20071;-62
2022/01/24 04:24:49;;;;;;;3.80;0.63;;;;;;;;;;4975632;28;20019;-63
2022/01/24 04:27:15;;;;;;;2.47;0.68;;;;;;;;;;4975253;28;20054;-65
2022/01/24 04:29:41;;;;;;;3.08;0.60;;;;;;;;;;4976412;28;20081;-62
2022/01/24 04:32:08;;;;;;;4.30;0.70;;;;;;;;;;4972393;28;20035;-61
2022/01/24 04:34:34;;;;;;;0.52;0.50;;;;;;;;;;4960914;28;20027;-62
2022/01/24 04:37:01;;;;;;;0.73;0.60;;;;;;;;;;4963447;28;20038;-61
2022/01/24 04:39:27;;;;;;;0.85;0.52;;;;;;;;;;4975890;28;20023;-64
2022/01/24 04:41:56;;;;;;;0.98;0.80;;;;;;;;;;4974891;28;20037;-62
2022/01/24 04:55:08;;;;;;;2.60;0.60;;;;;;;;;;4975895;28;20137;-62
2022/01/24 04:57:34;;;;;;;3.58;0.70;;;;;;;;;;4973665;28;20042;-64
2022/01/24 05:00:01;;;;;;;1.60;0.82;;;;;;;;;;4975573;28;20402;-64
2022/01/24 05:02:27;;;;;;;0.70;0.70;;;;;;;;;;4974620;28;20026;-63
2022/01/24 05:04:54;;;;;;;1.48;0.90;;;;;;;;;;4975472;28;20522;-60
2022/01/24 05:07:20;;;;;;;0.60;0.60;;;;;;;;;;4974598;28;20023;-64
2022/01/24 05:12:25;;;;;;;1.05;0.60;;;;;;;;;;4974099;28;20031;-62
2022/01/24 05:25:51;;;;;;;0.75;0.75;;;;;;;;;;4975365;28;20130;-66
2022/01/24 05:28:17;;;;;;;1.40;0.70;;;;;;;;;;4973975;28;20454;-61
2022/01/24 05:30:43;;;;;;;2.42;0.70;;;;;;;;;;4974869;28;20077;-64
2022/01/24 05:33:09;;;;;;;1.73;0.80;;;;;;;;;;4963775;28;20038;-63
2022/01/24 05:35:35;;;;;;;2.28;0.90;;;;;;;;;;4972480;28;20022;-60
2022/01/24 05:38:01;;;;;;;1.85;0.90;;;;;;;;;;4973912;28;20545;-61
2022/01/24 05:40:27;;;;;;;2.63;0.80;;;;;;;;;;4975164;28;20431;-61
2022/01/24 05:42:53;;;;;;;4.93;1.00;;;;;;;;;;4973789;28;20114;-60
2022/01/24 05:45:19;;;;;;;7.50;0.90;;;;;;;;;;4974855;28;20495;-60
2022/01/24 05:47:45;;;;;;;7.78;0.80;;;;;;;;;;4973582;28;20130;-60
2022/01/24 05:50:11;;;;;;;2.75;1.02;;;;;;;;;;4974604;28;20094;-60
2022/01/24 05:52:37;;;;;;;4.75;0.88;;;;;;;;;;4973171;28;20031;-61
2022/01/24 05:55:04;;;;;;;5.88;2.45;;;;;;;;;;4969083;28;20154;-69
2022/01/24 05:57:30;;;;;;;4.03;2.45;;;;;;;;;;4971197;28;20042;-62
2022/01/24 05:59:56;;;;;;;15.20;5.13;;;;;;;;;;4971727;28;20035;-62
2022/01/24 06:02:22;;;;;;;7.03;3.88;;;;;;;;;;4974059;28;20450;-59
2022/01/24 06:04:48;;;;;;;27.50;5.40;;;;;;;;;;4975233;28;20031;-63
2022/01/24 06:07:14;;;;;;;20.40;4.60;;;;;;;;;;4969147;28;20054;-60
2022/01/24 06:09:40;;;;;;;46.75;6.75;;;;;;;;;;4981676;28;20029;-63
2022/01/24 06:12:06;;;;;;;39.08;6.50;;;;;;;;;;4983700;28;20031;-61
2022/01/24 06:14:32;;;;;;;36.13;7.18;;;;;;;;;;4974434;28;20050;-60
2022/01/24 06:16:58;;;;;;;22.75;6.40;;;;;;;;;;4978338;28;20486;-63
2022/01/24 06:19:24;;;;;;;38.58;6.63;;;;;;;;;;4981814;28;20034;-62
2022/01/24 06:21:50;;;;;;;42.08;5.95;;;;;;;;;;4978267;28;20031;-62
2022/01/24 06:24:16;;;;;;;49.95;5.95;;;;;;;;;;4973712;28;20026;-64
2022/01/24 06:26:43;;;;;;;24.20;5.65;;;;;;;;;;4972231;28;20057;-64
2022/01/24 06:29:10;;;;;;;32.00;6.45;;;;;;;;;;4973646;28;20478;-64
2022/01/24 06:31:36;;;;;;;36.90;7.63;;;;;;;;;;4956587;28;20089;-63
2022/01/24 06:34:02;;;;;;;41.97;7.30;;;;;;;;;;4956613;28;20426;-63
2022/01/24 06:36:28;;;;;;;43.35;8.05;;;;;;;;;;4973995;28;20097;-64
2022/01/24 06:38:54;;;;;;;29.95;7.50;;;;;;;;;;4956627;28;20572;-64
2022/01/24 06:41:26;;;;;;;24.63;7.22;;;;;;;;;;4975082;28;20042;-64
2022/01/24 06:43:52;;;;;;;35.38;8.35;;;;;;;;;;4980359;28;20038;-63
2022/01/24 06:46:18;;;;;;;27.63;9.15;;;;;;;;;;4966734;28;20344;-65
2022/01/24 06:48:44;;;;;;;26.67;8.70;;;;;;;;;;4979824;28;20034;-64
2022/01/24 06:51:10;;;;;;;26.80;7.60;;;;;;;;;;4980422;28;20026;-64
2022/01/24 06:53:40;;;;;;;27.60;7.50;;;;;;;;;;4981692;28;20459;-64
2022/01/24 06:56:06;;;;;;;19.45;8.63;;;;;;;;;;4981450;28;20029;-63
2022/01/24 06:58:33;;;;;;;21.52;8.80;;;;;;;;;;4981274;28;20037;-63
2022/01/24 07:01:00;;;;;;;20.42;8.77;;;;;;;;;;4982410;28;20402;-62
2022/01/24 07:03:26;;;;;;;16.90;9.00;;;;;;;;;;4968017;28;20061;-64
2022/01/24 07:05:52;;;;;;;15.98;8.30;;;;;;;;;;4983226;28;20055;-64
2022/01/24 07:08:18;;;;;;;15.15;9.05;;;;;;;;;;4985229;28;20093;-67
2022/01/24 07:10:44;;;;;;;20.75;9.05;;;;;;;;;;4993572;28;20034;-64
2022/01/24 07:13:10;;;;;;;16.35;9.15;;;;;;;;;;4992956;28;20065;-64
2022/01/24 07:15:46;;;;;;;26.20;9.10;;;;;;;;;;4974098;28;20056;-64
2022/01/24 07:20:38;;;;;;;18.67;8.27;;;;;;;;;;4977855;28;20031;-64
2022/01/24 07:23:04;;;;;;;16.77;8.57;;;;;;;;;;4976212;28;20034;-64
2022/01/24 07:25:30;;;;;;;21.58;9.07;;;;;;;;;;4977449;28;20082;-63
2022/01/24 07:27:56;;;;;;;13.13;8.98;;;;;;;;;;4977447;28;20031;-64
2022/01/24 07:30:22;;;;;;;16.17;9.68;;;;;;;;;;4959292;28;20371;-64
2022/01/24 07:32:48;;;;;;;14.82;9.10;;;;;;;;;;4979565;28;20173;-67
2022/01/24 07:35:14;;;;;;;14.05;9.32;;;;;;;;;;4993036;28;20184;-65
2022/01/24 07:37:40;;;;;;;18.00;8.77;;;;;;;;;;4986036;28;20042;-66
2022/01/24 07:40:08;;;;;;;14.52;8.77;;;;;;;;;;4980291;28;20073;-65
2022/01/24 07:42:53;;;;;;;18.05;9.32;;;;;;;;;;4989591;28;20146;-66
2022/01/24 07:45:21;;;;;;;14.80;8.68;;;;;;;;;;4982298;28;20355;-66
2022/01/24 07:47:47;;;;;;;16.00;8.60;;;;;;;;;;4985693;28;20031;-66
2022/01/24 07:50:13;;;;;;;13.57;9.02;;;;;;;;;;4983011;28;20097;-66
2022/01/24 07:52:39;;;;;;;16.90;8.82;;;;;;;;;;4975998;28;20084;-66
2022/01/24 07:55:06;;;;;;;11.95;8.80;;;;;;;;;;4979126;28;20452;-64
2022/01/24 07:57:31;;;;;;;11.60;9.48;;;;;;;;;;4996469;28;20046;-63
2022/01/24 07:59:58;;;;;;;12.10;9.90;;;;;;;;;;4990562;28;20359;-64
2022/01/24 08:02:24;;;;;;;15.95;9.98;;;;;;;;;;4972321;28;20533;-63
2022/01/24 08:04:51;;;;;;;13.88;10.35;;;;;;;;;;4976105;28;20474;-64
2022/01/24 08:07:17;;;;;;;15.48;11.18;;;;;;;;;;4976692;28;20388;-64
2022/01/24 08:09:43;;;;;;;16.65;11.57;;;;;;;;;;4977075;28;20525;-63
2022/01/24 08:12:09;;;;;;;17.00;11.95;;;;;;;;;;4964469;28;20041;-64
2022/01/24 08:14:35;;;;;;;15.52;12.15;;;;;;;;;;4976530;28;20102;-64
2022/01/24 08:17:02;;;;;;;18.58;12.35;;;;;;;;;;4976146;28;20127;-64
2022/01/24 08:19:29;;;;;;;17.60;12.82;;;;;;;;;;4976296;28;20034;-63
2022/01/24 08:21:56;;;;;;;16.08;12.98;;;;;;;;;;4976104;28;20031;-64
2022/01/24 08:24:23;;;;;;;18.02;13.60;;;;;;;;;;4975919;28;20034;-64
2022/01/24 08:26:49;;;;;;;18.60;13.50;;;;;;;;;;4958818;28;20097;-64
2022/01/24 08:29:15;;;;;;;20.10;14.55;;;;;;;;;;4958710;28;20475;-64
2022/01/24 08:31:41;;;;;;;20.95;15.25;;;;;;;;;;4956520;28;20045;-63
2022/01/24 08:34:07;;;;;;;26.08;15.43;;;;;;;;;;4956584;29;20382;-64
2022/01/24 08:36:34;;;;;;;21.10;14.68;;;;;;;;;;4970437;28;20038;-64
2022/01/24 08:39:06;;;;;;;19.95;15.43;;;;;;;;;;4995360;28;20034;-63
2022/01/24 08:44:21;;;;;;;21.75;15.52;;;;;;;;;;4990072;28;20172;-63
2022/01/24 08:46:47;;;;;;;20.27;15.90;;;;;;;;;;4976001;28;20110;-64
2022/01/24 08:49:14;;;;;;;22.88;15.85;;;;;;;;;;4975749;28;20027;-64
2022/01/24 08:51:40;;;;;;;20.70;15.73;;;;;;;;;;4991410;28;20045;-64
2022/01/24 08:54:07;;;;;;;21.25;16.35;;;;;;;;;;4995313;28;20359;-63
2022/01/24 08:56:34;;;;;;;21.88;16.38;;;;;;;;;;4994438;28;20132;-63
2022/01/24 08:59:00;;;;;;;22.63;17.02;;;;;;;;;;4977642;28;20086;-63
2022/01/24 09:01:26;;;;;;;24.17;18.02;;;;;;;;;;4994836;28;20030;-63
2022/01/24 09:03:52;;;;;;;24.60;17.00;;;;;;;;;;4994786;28;20470;-64
2022/01/24 09:06:20;;;;;;;25.17;18.40;;;;;;;;;;4979671;28;20494;-64
2022/01/24 09:08:55;;;;;;;24.30;17.67;;;;;;;;;;4973991;28;20426;-63
2022/01/24 09:11:21;;;;;;;25.35;18.35;;;;;;;;;;4972973;28;20372;-63
2022/01/24 09:13:47;;;;;;;25.52;19.02;;;;;;;;;;4974928;28;20039;-63
2022/01/24 09:16:13;;;;;;;24.67;19.10;;;;;;;;;;4974940;28;20051;-63
2022/01/24 09:18:39;;;;;;;27.20;18.73;;;;;;;;;;4978839;28;20129;-64
2022/01/24 09:21:05;;;;;;;23.02;18.58;;;;;;;;;;4983577;28;20411;-63
2022/01/24 09:23:31;;;;;;;26.15;19.55;;;;;;;;;;4986488;28;20065;-63
2022/01/24 09:25:57;;;;;;;23.98;18.65;;;;;;;;;;4980903;28;20026;-64
2022/01/24 09:28:23;;;;;;;27.48;20.25;;;;;;;;;;4986070;28;20026;-63
2022/01/24 09:30:50;;;;;;;25.90;19.67;;;;;;;;;;4986041;28;20026;-63
2022/01/24 09:33:17;;;;;;;25.52;19.95;;;;;;;;;;4966150;28;20482;-63
2022/01/24 09:35:43;;;;;;;25.05;18.52;;;;;;;;;;4985001;28;20148;-63
2022/01/24 09:38:09;;;;;;;27.10;20.38;;;;;;;;;;4982515;28;20085;-63
2022/01/24 09:40:36;;;;;;;26.23;19.65;;;;;;;;;;4983852;28;20030;-63
2022/01/24 09:43:02;;;;;;;27.88;20.80;;;;;;;;;;4982926;28;20023;-63
2022/01/24 09:45:28;;;;;;;26.60;21.20;;;;;;;;;;4983171;28;20034;-63
2022/01/24 09:47:54;;;;;;;27.05;20.65;;;;;;;;;;4986412;28;20026;-63
2022/01/24 09:50:20;;;;;;;26.08;20.15;;;;;;;;;;4982992;28;20034;-63
2022/01/24 09:52:48;;;;;;;29.88;21.75;;;;;;;;;;4984317;28;20097;-63
2022/01/24 09:55:15;;;;;;;28.90;20.73;;;;;;;;;;4982132;28;20029;-63
2022/01/24 09:57:42;;;;;;;28.95;20.02;;;;;;;;;;4967971;28;20031;-63
2022/01/24 10:00:10;;;;;;;27.13;20.27;;;;;;;;;;4986035;28;20014;-63
2022/01/24 10:02:36;;;;;;;29.05;21.15;;;;;;;;;;4986758;28;20093;-63
2022/01/24 10:05:12;;;;;;;28.95;20.80;;;;;;;;;;4982529;28;20046;-63
2022/01/24 10:07:41;;;;;;;28.58;20.60;;;;;;;;;;4982108;28;20034;-63
2022/01/24 10:10:07;;;;;;;27.75;21.45;;;;;;;;;;4983131;28;20063;-63
2022/01/24 10:17:55;;;;;;;27.08;21.05;;;;;;;;;;4974254;28;20066;-62
2022/01/24 10:20:22;;;;;;;27.33;19.88;;;;;;;;;;4976660;28;20022;-63
2022/01/24 10:23:07;;;;;;;27.77;21.10;;;;;;;;;;4974121;28;20058;-63
2022/01/24 10:25:44;;;;;;;27.58;21.67;;;;;;;;;;4956992;28;20406;-63
2022/01/24 10:28:10;;;;;;;27.77;20.23;;;;;;;;;;4974817;28;20521;-64
2022/01/24 10:30:37;;;;;;;26.80;20.55;;;;;;;;;;4974694;28;20617;-63
2022/01/24 10:33:04;;;;;;;26.48;19.90;;;;;;;;;;4973929;28;20090;-63
2022/01/24 10:35:31;;;;;;;26.00;19.95;;;;;;;;;;4974334;28;20047;-63
2022/01/24 10:38:18;;;;;;;28.15;19.85;;;;;;;;;;4972604;28;20027;-63
2022/01/24 10:40:51;;;;;;;25.60;19.88;;;;;;;;;;4970869;28;20019;-63
2022/01/24 10:43:19;;;;;;;25.98;19.90;;;;;;;;;;4973080;28;20062;-63
2022/01/24 10:45:45;;;;;;;24.60;19.45;;;;;;;;;;4973403;28;20102;-63
2022/01/24 10:48:12;;;;;;;27.00;19.45;;;;;;;;;;4986683;28;20065;-63
2022/01/24 10:50:38;;;;;;;24.25;19.42;;;;;;;;;;4991604;28;20417;-63
2022/01/24 10:53:11;;;;;;;25.55;19.15;;;;;;;;;;4971537;28;20122;-63
2022/01/24 10:55:39;;;;;;;24.20;19.50;;;;;;;;;;4954136;28;20471;-63
2022/01/24 10:58:05;;;;;;;24.77;19.00;;;;;;;;;;4936977;29;20036;-63
2022/01/24 11:00:31;;;;;;;24.27;18.80;;;;;;;;;;4954080;28;20035;-63
2022/01/24 11:02:59;;;;;;;24.40;18.10;;;;;;;;;;4957781;28;20070;-63
2022/01/24 11:05:27;;;;;;;24.80;18.50;;;;;;;;;;4971538;28;20030;-63
2022/01/24 11:08:09;;;;;;;26.42;19.00;;;;;;;;;;4970610;28;20045;-63
2022/01/24 11:10:35;;;;;;;;;;;;;;;;;;4970726;28;20038;-63
2022/01/24 11:13:04;;;;;;;24.20;17.88;;;;;;;;;;4970577;28;19914;-63
2022/01/24 11:15:30;;;;;;;23.90;17.40;;;;;;;;;;4970420;28;20035;-63
2022/01/24 11:17:58;;;;;;;24.63;18.38;;;;;;;;;;4970561;28;20541;-63
2022/01/24 11:20:29;;;;;;;23.35;18.20;;;;;;;;;;4970621;28;20049;-63
2022/01/24 11:23:00;;;;;;;23.92;18.08;;;;;;;;;;4970731;28;20059;-63
2022/01/24 11:25:28;;;;;;;22.38;16.83;;;;;;;;;;4969606;28;20045;-63
2022/01/24 11:27:54;;;;;;;25.40;17.77;;;;;;;;;;4970064;28;20023;-63
2022/01/24 11:30:23;;;;;;;22.58;17.83;;;;;;;;;;4970400;28;20037;-63
2022/01/24 11:32:58;;;;;;;22.00;17.52;;;;;;;;;;4970308;28;20019;-63
2022/01/24 11:35:30;;;;;;;24.05;17.63;;;;;;;;;;4970731;28;20026;-63
2022/01/24 11:37:57;;;;;;;22.70;17.20;;;;;;;;;;4959132;28;20031;-63
2022/01/24 11:40:23;;;;;;;23.75;17.77;;;;;;;;;;4960314;28;20118;-63
2022/01/24 11:42:50;;;;;;;23.00;17.20;;;;;;;;;;4970663;28;20058;-63
2022/01/24 11:45:19;;;;;;;21.58;17.05;;;;;;;;;;4970859;28;20789;-63
2022/01/24 11:47:47;;;;;;;23.45;18.33;;;;;;;;;;4970305;28;20497;-63
2022/01/24 11:50:25;;;;;;;23.55;17.65;;;;;;;;;;4970578;28;20023;-63
2022/01/24 11:52:52;;;;;;;22.38;17.33;;;;;;;;;;4970475;28;20054;-64
2022/01/24 11:55:31;;;;;;;22.65;18.15;;;;;;;;;;4970353;28;20437;-63
2022/01/24 11:58:07;;;;;;;23.88;17.70;;;;;;;;;;4963543;28;20364;-63
2022/01/24 12:00:44;;;;;;;24.10;17.60;;;;;;;;;;4981010;28;20019;-63
2022/01/24 12:03:17;;;;;;;21.80;17.73;;;;;;;;;;4976172;28;20056;-63
2022/01/24 12:05:44;;;;;;;24.17;18.35;;;;;;;;;;4963911;28;20522;-63
2022/01/24 12:08:10;;;;;;;21.27;17.58;;;;;;;;;;4973499;28;20477;-63
2022/01/24 12:10:44;;;;;;;23.65;18.60;;;;;;;;;;4974339;28;20045;-64
2022/01/24 12:13:15;;;;;;;22.63;17.50;;;;;;;;;;4975411;28;20228;-63
2022/01/24 12:15:44;;;;;;;25.30;18.65;;;;;;;;;;4975613;28;20055;-63
2022/01/24 12:18:20;;;;;;;23.30;17.88;;;;;;;;;;4973467;28;20050;-63
2022/01/24 12:20:46;;;;;;;23.50;17.77;;;;;;;;;;4972955;28;20620;-62
2022/01/24 12:23:25;;;;;;;23.73;18.02;;;;;;;;;;4973408;28;20027;-63
2022/01/24 12:26:02;;;;;;;24.35;18.73;;;;;;;;;;4973340;28;20027;-62
2022/01/24 12:28:43;;;;;;;21.90;16.77;;;;;;;;;;4973578;28;20352;-63
2022/01/24 12:31:11;;;;;;;24.00;17.90;;;;;;;;;;4973509;28;20038;-63
2022/01/24 12:33:40;;;;;;;24.52;18.65;;;;;;;;;;4973646;28;20030;-63
2022/01/24 12:36:10;;;;;;;25.17;18.73;;;;;;;;;;4973133;28;20491;-63
2022/01/24 12:38:40;;;;;;;24.67;17.95;;;;;;;;;;4972921;28;20461;-63
2022/01/24 12:41:16;;;;;;;23.67;18.23;;;;;;;;;;4973487;28;20014;-63
2022/01/24 12:44:11;;;;;;;21.45;16.83;;;;;;;;;;4972911;28;20084;-64
2022/01/24 12:46:37;;;;;;;22.25;17.73;;;;;;;;;;4972621;28;20019;-63
2022/01/24 12:49:06;;;;;;;24.02;17.90;;;;;;;;;;4973111;28;20034;-62
2022/01/24 12:51:35;;;;;;;22.60;18.02;;;;;;;;;;4972918;28;20019;-62
2022/01/24 12:54:02;;;;;;;25.58;19.35;;;;;;;;;;4973474;28;20500;-63
2022/01/24 12:56:28;;;;;;;24.42;18.73;;;;;;;;;;4973253;28;20023;-62
2022/01/24 12:58:56;;;;;;;24.67;18.88;;;;;;;;;;4974382;28;20077;-63
2022/01/24 13:01:23;;;;;;;23.80;19.00;;;;;;;;;;4975330;28;20034;-63
2022/01/24 13:03:57;;;;;;;20.50;17.33;;;;;;;;;;4973352;28;20509;-63
2022/01/24 13:06:25;;;;;;;25.27;19.52;;;;;;;;;;4972500;28;20022;-62
2022/01/24 13:09:11;;;;;;;25.15;19.05;;;;;;;;;;4973000;28;20082;-62
2022/01/24 13:11:46;;;;;;;25.00;19.80;;;;;;;;;;4972354;28;20187;-63
2022/01/24 13:14:17;;;;;;;25.83;19.33;;;;;;;;;;4972057;28;20090;-63
2022/01/24 13:25:08;;;;;;;23.02;18.40;;;;;;;;;;4972114;28;20031;-63
2022/01/24 13:27:38;;;;;;;29.23;19.70;;;;;;;;;;4972231;28;20034;-63
2022/01/24 13:30:06;;;;;;;24.20;19.17;;;;;;;;;;4972651;28;20077;-63
2022/01/24 13:32:52;;;;;;;23.73;19.30;;;;;;;;;;4972621;28;20043;-62
2022/01/24 13:35:21;;;;;;;22.73;18.50;;;;;;;;;;4972766;28;20046;-62
2022/01/24 13:37:47;;;;;;;24.20;19.15;;;;;;;;;;4971928;28;20038;-62
2022/01/24 13:40:13;;;;;;;24.60;18.90;;;;;;;;;;4971745;28;20026;-62
2022/01/24 13:42:39;;;;;;;23.55;18.42;;;;;;;;;;4962825;28;20109;-63
2022/01/24 13:45:06;;;;;;;24.60;19.02;;;;;;;;;;4972392;28;20509;-63
2022/01/24 13:47:32;;;;;;;27.30;20.15;;;;;;;;;;4971829;28;20015;-63
2022/01/24 13:49:58;;;;;;;24.67;18.50;;;;;;;;;;4972125;28;20031;-63
2022/01/24 13:52:26;;;;;;;22.90;18.88;;;;;;;;;;4971346;28;20023;-63
2022/01/24 13:54:52;;;;;;;23.63;18.40;;;;;;;;;;4970176;28;20031;-64
2022/01/24 13:57:19;;;;;;;23.05;18.92;;;;;;;;;;4971503;28;20486;-61
2022/01/24 13:59:45;;;;;;;24.35;19.70;;;;;;;;;;4971976;28;20110;-62
2022/01/24 14:02:15;;;;;;;25.00;18.48;;;;;;;;;;4971468;28;20034;-62
2022/01/24 14:04:53;;;;;;;23.75;18.58;;;;;;;;;;4971786;28;20105;-62
2022/01/24 14:07:26;;;;;;;24.30;18.95;;;;;;;;;;4970723;28;20505;-63
2022/01/24 14:09:57;;;;;;;24.70;19.15;;;;;;;;;;4971804;28;20025;-62
2022/01/24 14:12:26;;;;;;;25.83;19.65;;;;;;;;;;4971214;28;20041;-63
2022/01/24 14:15:01;;;;;;;24.42;19.15;;;;;;;;;;4972375;28;20042;-63
2022/01/24 14:20:02;;;;;;;25.00;19.20;;;;;;;;;;4971563;28;20035;-63
2022/01/24 14:22:37;;;;;;;23.38;18.67;;;;;;;;;;4971050;28;20030;-63
2022/01/24 14:25:04;;;;;;;24.48;18.38;;;;;;;;;;4971476;28;20042;-63
2022/01/24 14:27:39;;;;;;;23.88;18.75;;;;;;;;;;4971311;28;20035;-63
2022/01/24 14:30:11;;;;;;;22.17;18.48;;;;;;;;;;4971120;28;20030;-63
2022/01/24 14:32:39;;;;;;;23.67;17.67;;;;;;;;;;4961559;28;20027;-63
2022/01/24 14:35:06;;;;;;;25.10;19.30;;;;;;;;;;4971627;28;20030;-63
2022/01/24 14:37:45;;;;;;;22.60;18.42;;;;;;;;;;4970735;28;21331;-63
2022/01/24 14:40:13;;;;;;;23.65;18.65;;;;;;;;;;4970563;28;20471;-62
2022/01/24 14:42:46;;;;;;;21.60;17.77;;;;;;;;;;4970625;28;20023;-63
2022/01/24 14:45:12;;;;;;;22.50;18.05;;;;;;;;;;4970948;28;20055;-63
2022/01/24 14:47:38;;;;;;;20.98;17.60;;;;;;;;;;4971084;28;20069;-62
2022/01/24 14:50:04;;;;;;;22.25;17.05;;;;;;;;;;4970985;28;20026;-62
2022/01/24 14:52:35;;;;;;;24.73;18.13;;;;;;;;;;4970578;28;20029;-62
2022/01/24 14:55:01;;;;;;;21.70;17.52;;;;;;;;;;4970866;28;20026;-62
2022/01/24 14:57:26;;;;;;;23.73;17.55;;;;;;;;;;4970747;28;20030;-63
2022/01/24 14:59:53;;;;;;;23.33;18.50;;;;;;;;;;4971375;28;20105;-63
2022/01/24 15:02:18;;;;;;;21.90;17.40;;;;;;;;;;4970672;28;20027;-62
2022/01/24 15:04:45;;;;;;;21.85;18.08;;;;;;;;;;4960804;28;20085;-62
2022/01/24 15:07:12;;;;;;;20.08;16.42;;;;;;;;;;4970722;28;20054;-62
2022/01/24 15:09:39;;;;;;;22.33;17.48;;;;;;;;;;4970908;28;20046;-62
2022/01/24 15:12:07;;;;;;;22.20;17.58;;;;;;;;;;4970274;28;20035;-62
2022/01/24 15:14:42;;;;;;;21.77;17.17;;;;;;;;;;4970458;28;20029;-63
2022/01/24 15:25:22;;;;;;;20.33;16.75;;;;;;;;;;4970846;28;20098;-62
2022/01/24 15:27:51;;;;;;;22.48;17.15;;;;;;;;;;4971009;28;20031;-62
2022/01/24 15:30:18;;;;;;;21.20;17.33;;;;;;;;;;4969886;28;20015;-63
2022/01/24 15:32:44;;;;;;;21.63;17.90;;;;;;;;;;4970605;28;20031;-62
2022/01/24 15:35:12;;;;;;;20.48;16.65;;;;;;;;;;4970315;28;20023;-62
2022/01/24 15:37:38;;;;;;;19.65;16.58;;;;;;;;;;4970227;28;20035;-62
2022/01/24 15:40:06;;;;;;;20.80;16.42;;;;;;;;;;4972858;28;20026;-62
2022/01/24 15:42:50;;;;;;;20.10;16.45;;;;;;;;;;4963456;28;21248;-63
2022/01/24 15:45:38;;;;;;;19.40;15.88;;;;;;;;;;4974147;28;20033;-63
2022/01/24 15:48:05;;;;;;;20.90;16.55;;;;;;;;;;4964324;28;20401;-62
2022/01/24 15:50:31;;;;;;;18.77;16.17;;;;;;;;;;4974307;28;20102;-62
2022/01/24 15:52:58;;;;;;;20.77;16.55;;;;;;;;;;4964169;28;20057;-62
2022/01/24 15:55:28;;;;;;;19.42;16.23;;;;;;;;;;4974360;28;20081;-62
2022/01/24 15:57:57;;;;;;;19.45;15.80;;;;;;;;;;4973982;28;20050;-62
2022/01/24 16:00:24;;;;;;;21.52;16.80;;;;;;;;;;4973987;28;20860;-63
2022/01/24 16:03:00;;;;;;;19.00;15.60;;;;;;;;;;4973922;28;20398;-63
2022/01/24 16:05:27;;;;;;;20.13;16.35;;;;;;;;;;4974306;28;20027;-63
2022/01/24 16:07:54;;;;;;;19.40;15.70;;;;;;;;;;4974141;28;20027;-63
2022/01/24 16:10:21;;;;;;;19.88;16.15;;;;;;;;;;4973819;28;20509;-64
2022/01/24 16:12:49;;;;;;;20.50;16.02;;;;;;;;;;4974019;28;20027;-63
2022/01/24 16:15:17;;;;;;;19.70;15.95;;;;;;;;;;4963303;28;20050;-63
2022/01/24 16:17:44;;;;;;;19.38;15.32;;;;;;;;;;4974597;28;20031;-63
2022/01/24 16:25:42;;;;;;;18.33;15.70;;;;;;;;;;4973587;28;20022;-63
2022/01/24 16:28:12;;;;;;;19.83;16.30;;;;;;;;;;4973869;28;20096;-63
2022/01/24 16:30:40;;;;;;;19.35;15.38;;;;;;;;;;4971904;28;20039;-65
2022/01/24 16:33:06;;;;;;;18.30;15.45;;;;;;;;;;4971248;28;20034;-64
2022/01/24 16:35:32;;;;;;;17.65;14.95;;;;;;;;;;4969930;28;20576;-63
2022/01/24 16:38:00;;;;;;;18.17;15.32;;;;;;;;;;4970464;28;20031;-63
2022/01/24 16:40:38;;;;;;;19.35;15.40;;;;;;;;;;4971215;28;20477;-63
2022/01/24 16:48:23;;;;;;;19.77;15.60;;;;;;;;;;4968094;28;20046;-63
2022/01/24 16:50:49;;;;;;;18.08;15.32;;;;;;;;;;4970691;28;20023;-64